createdAt,value
2022-12-18T00:01:07.210Z,137.32
2022-12-18T00:03:37.338Z,118.55
2022-12-18T00:06:04.148Z,124.88
2022-12-18T00:08:30.522Z,137.70
2022-12-18T00:11:04.625Z,124.07
2022-12-18T00:13:33.867Z,132.82
2022-12-18T00:16:05.756Z,134.77
2022-12-18T00:18:32.839Z,127.95
2022-12-18T00:21:01.597Z,122.03
2022-12-18T00:23:28.704Z,130.90
2022-12-18T00:25:55.138Z,124.35
2022-12-18T00:28:21.498Z,117.00
2022-12-18T00:30:47.915Z,113.90
2022-12-18T00:33:14.290Z,108.22
2022-12-18T00:35:40.630Z,103.67
2022-12-18T00:38:07.265Z,114.40
2022-12-18T00:40:33.923Z,110.32
2022-12-18T00:43:00.288Z,109.80
2022-12-18T00:45:31.713Z,108.20
2022-12-18T00:47:58.188Z,113.63
2022-12-18T00:50:26.230Z,120.43
2022-12-18T00:52:52.914Z,133.20
2022-12-18T00:55:19.615Z,114.00
2022-12-18T00:57:45.987Z,116.80
2022-12-18T01:00:15.042Z,113.63
2022-12-18T01:02:42.284Z,108.55
2022-12-18T01:05:10.187Z,115.63
2022-12-18T01:07:36.624Z,117.43
2022-12-18T01:10:03.638Z,117.07
2022-12-18T01:12:30.001Z,114.50
2022-12-18T01:14:56.589Z,115.53
2022-12-18T01:17:23.036Z,127.10
2022-12-18T01:19:49.411Z,120.88
2022-12-18T01:22:16.350Z,115.35
2022-12-18T01:24:42.678Z,115.33
2022-12-18T01:27:09.016Z,107.25
2022-12-18T01:29:35.369Z,111.00
2022-12-18T01:32:01.766Z,121.05
2022-12-18T01:34:28.182Z,109.00
2022-12-18T01:36:54.598Z,114.90
2022-12-18T01:39:20.989Z,119.25
2022-12-18T01:42:02.923Z,112.35
2022-12-18T01:44:53.803Z,118.72
2022-12-18T01:47:26.251Z,120.18
2022-12-18T01:49:53.885Z,111.40
2022-12-18T01:52:21.487Z,111.30
2022-12-18T01:54:50.851Z,103.30
2022-12-18T01:57:17.648Z,113.75
2022-12-18T01:59:49.216Z,105.63
2022-12-18T02:02:17.703Z,104.77
2022-12-18T02:04:49.402Z,109.03
2022-12-18T02:07:21.422Z,101.43
2022-12-18T02:09:54.084Z,110.47
2022-12-18T02:12:25.529Z,112.30
2022-12-18T02:15:09.977Z,110.83
2022-12-18T02:17:43.446Z,98.95
2022-12-18T02:20:44.763Z,113.22
2022-12-18T02:23:42.206Z,106.40
2022-12-18T02:26:50.375Z,112.43
2022-12-18T02:29:28.320Z,117.10
2022-12-18T02:31:58.673Z,120.32
2022-12-18T02:34:30.830Z,111.22
2022-12-18T02:36:59.249Z,116.43
2022-12-18T02:39:30.085Z,128.80
2022-12-18T02:41:58.401Z,124.77
2022-12-18T02:44:24.754Z,120.88
2022-12-18T02:46:53.675Z,121.03
2022-12-18T02:49:35.137Z,121.35
2022-12-18T02:52:16.655Z,124.65
2022-12-18T02:55:13.845Z,116.53
2022-12-18T02:57:46.038Z,117.90
2022-12-18T03:00:21.192Z,109.82
2022-12-18T03:03:07.373Z,100.43
2022-12-18T03:05:46.941Z,93.82
2022-12-18T03:08:24.021Z,88.30
2022-12-18T03:11:12.216Z,86.03
2022-12-18T03:13:49.440Z,76.63
2022-12-18T03:16:25.706Z,74.22
2022-12-18T03:19:02.193Z,71.63
2022-12-18T03:21:37.665Z,69.10
2022-12-18T03:24:08.803Z,64.47
2022-12-18T03:26:41.099Z,77.85
2022-12-18T03:29:12.889Z,66.63
2022-12-18T03:31:43.592Z,62.95
2022-12-18T03:34:31.794Z,73.80
2022-12-18T03:36:58.593Z,71.13
2022-12-18T03:39:25.690Z,62.05
2022-12-18T03:42:20.032Z,63.75
2022-12-18T03:45:02.967Z,64.43
2022-12-18T03:47:39.908Z,62.43
2022-12-18T03:50:15.682Z,60.70
2022-12-18T03:52:55.782Z,71.88
2022-12-18T03:55:24.460Z,66.85
2022-12-18T03:57:52.912Z,61.42
2022-12-18T04:00:20.434Z,66.50
2022-12-18T04:02:51.850Z,68.97
2022-12-18T04:05:19.846Z,74.93
2022-12-18T04:07:48.583Z,66.53
2022-12-18T04:10:18.914Z,65.47
2022-12-18T04:12:45.708Z,65.40
2022-12-18T04:15:13.654Z,70.65
2022-12-18T04:17:48.494Z,68.47
2022-12-18T04:20:15.080Z,69.13
2022-12-18T04:22:41.485Z,69.22
2022-12-18T04:25:08.279Z,68.57
2022-12-18T04:27:34.803Z,63.97
2022-12-18T04:30:01.782Z,63.45
2022-12-18T04:32:28.160Z,63.38
2022-12-18T04:34:54.515Z,75.20
2022-12-18T04:37:20.897Z,57.70
2022-12-18T04:39:47.245Z,65.30
2022-12-18T04:42:13.600Z,65.13
2022-12-18T04:44:39.924Z,58.35
2022-12-18T04:47:06.351Z,58.92
2022-12-18T04:49:32.788Z,56.30
2022-12-18T04:51:59.134Z,58.28
2022-12-18T04:54:26.396Z,58.08
2022-12-18T04:56:52.750Z,56.03
2022-12-18T04:59:19.555Z,57.70
2022-12-18T05:01:46.789Z,61.23
2022-12-18T05:04:13.341Z,57.92
2022-12-18T05:06:39.722Z,57.78
2022-12-18T05:09:06.286Z,60.10
2022-12-18T05:11:32.678Z,54.65
2022-12-18T05:13:59.040Z,50.80
2022-12-18T05:16:25.449Z,60.28
2022-12-18T05:18:51.844Z,54.33
2022-12-18T05:21:18.184Z,58.55
2022-12-18T05:23:44.683Z,59.05
2022-12-18T05:26:17.119Z,53.50
2022-12-18T05:28:43.553Z,52.17
2022-12-18T05:31:10.134Z,62.97
2022-12-18T05:33:36.917Z,50.03
2022-12-18T05:36:06.110Z,53.63
2022-12-18T05:38:33.641Z,53.90
2022-12-18T05:41:00.250Z,49.65
2022-12-18T05:43:27.878Z,50.60
2022-12-18T05:45:54.974Z,49.63
2022-12-18T05:48:22.257Z,49.15
2022-12-18T05:50:50.497Z,50.27
2022-12-18T05:53:18.763Z,51.70
2022-12-18T05:55:45.311Z,51.15
2022-12-18T05:58:13.192Z,48.90
2022-12-18T06:00:44.964Z,53.05
2022-12-18T06:03:13.039Z,53.13
2022-12-18T06:05:42.854Z,52.75
2022-12-18T06:08:09.288Z,46.65
2022-12-18T06:10:35.987Z,52.10
2022-12-18T06:13:02.629Z,49.90
2022-12-18T06:15:29.010Z,49.10
2022-12-18T06:17:55.368Z,50.15
2022-12-18T06:20:21.762Z,47.90
2022-12-18T06:22:48.335Z,49.10
2022-12-18T06:25:15.095Z,46.50
2022-12-18T06:27:41.507Z,49.77
2022-12-18T06:30:09.376Z,45.05
2022-12-18T06:32:35.841Z,48.13
2022-12-18T06:35:02.173Z,44.63
2022-12-18T06:37:29.201Z,44.13
2022-12-18T06:39:57.414Z,49.37
2022-12-18T06:42:24.814Z,44.90
2022-12-18T06:44:51.401Z,43.22
2022-12-18T06:47:17.805Z,41.63
2022-12-18T06:49:44.421Z,46.30
2022-12-18T06:52:10.831Z,46.47
2022-12-18T06:54:37.250Z,48.22
2022-12-18T06:57:03.658Z,46.67
2022-12-18T06:59:30.110Z,41.88
2022-12-18T07:01:56.628Z,46.17
2022-12-18T07:04:23.148Z,44.10
2022-12-18T07:06:49.557Z,42.40
2022-12-18T07:09:15.891Z,46.10
2022-12-18T07:11:42.618Z,40.58
2022-12-18T07:14:08.973Z,45.38
2022-12-18T07:16:35.434Z,41.93
2022-12-18T07:19:01.814Z,39.70
2022-12-18T07:21:28.185Z,39.42
2022-12-18T07:23:54.824Z,42.30
2022-12-18T07:26:21.996Z,38.92
2022-12-18T07:28:49.065Z,38.23
2022-12-18T07:31:19.507Z,43.72
2022-12-18T07:33:48.187Z,38.92
2022-12-18T07:36:15.098Z,51.25
2022-12-18T07:38:41.527Z,36.95
2022-12-18T07:41:11.034Z,37.80
2022-12-18T07:43:38.765Z,43.25
2022-12-18T07:46:05.958Z,38.75
2022-12-18T07:48:32.690Z,33.20
2022-12-18T07:51:01.925Z,37.47
2022-12-18T07:53:28.564Z,37.10
2022-12-18T07:56:31.765Z,36.40
2022-12-18T07:58:50.405Z,39.30
2022-12-18T08:01:17.016Z,34.90
2022-12-18T08:03:43.792Z,36.08
2022-12-18T08:06:11.090Z,36.17
2022-12-18T08:08:37.955Z,38.95
2022-12-18T08:11:04.488Z,38.53
2022-12-18T08:13:30.879Z,37.05
2022-12-18T08:16:08.314Z,32.35
2022-12-18T08:18:36.229Z,36.43
2022-12-18T08:21:17.705Z,33.47
2022-12-18T08:23:44.335Z,33.88
2022-12-18T08:26:12.450Z,33.58
2022-12-18T08:28:38.830Z,30.65
2022-12-18T08:31:05.586Z,28.13
2022-12-18T08:33:32.419Z,28.85
2022-12-18T08:36:02.479Z,26.98
2022-12-18T08:38:29.344Z,27.50
2022-12-18T08:41:05.043Z,20.75
2022-12-18T08:43:50.310Z,27.60
2022-12-18T08:46:17.843Z,22.48
2022-12-18T08:48:44.637Z,30.02
2022-12-18T08:51:11.333Z,24.70
2022-12-18T08:53:38.546Z,22.33
2022-12-18T08:56:06.127Z,28.83
2022-12-18T08:58:32.609Z,29.77
2022-12-18T09:01:04.058Z,28.90
2022-12-18T09:03:30.621Z,27.02
2022-12-18T09:05:57.337Z,27.92
2022-12-18T09:08:23.920Z,26.80
2022-12-18T09:10:51.041Z,27.45
2022-12-18T09:13:17.928Z,25.40
2022-12-18T09:15:49.040Z,25.45
2022-12-18T09:18:17.392Z,21.33
2022-12-18T09:20:44.149Z,22.10
2022-12-18T09:23:11.044Z,22.10
2022-12-18T09:25:37.989Z,24.35
2022-12-18T09:28:12.355Z,23.75
2022-12-18T09:30:40.888Z,18.00
2022-12-18T09:33:07.306Z,20.17
2022-12-18T09:35:33.857Z,21.23
2022-12-18T09:38:00.361Z,19.15
2022-12-18T09:40:33.477Z,20.67
2022-12-18T09:43:04.161Z,20.85
2022-12-18T09:45:41.570Z,18.53
2022-12-18T09:48:16.814Z,19.25
2022-12-18T09:50:43.709Z,16.83
2022-12-18T09:53:33.755Z,16.45
2022-12-18T09:56:02.627Z,16.42
2022-12-18T09:58:47.487Z,16.10
2022-12-18T10:01:21.804Z,16.90
2022-12-18T10:03:48.888Z,15.85
2022-12-18T10:06:33.587Z,14.88
2022-12-18T10:09:07.253Z,18.00
2022-12-18T10:12:09.518Z,15.17
2022-12-18T10:15:05.566Z,16.90
2022-12-18T10:17:51.629Z,13.52
2022-12-18T10:20:49.628Z,11.57
2022-12-18T10:23:21.604Z,13.23
2022-12-18T10:26:03.691Z,14.27
2022-12-18T10:28:37.291Z,15.43
2022-12-18T10:31:06.434Z,14.32
2022-12-18T10:33:34.923Z,12.52
2022-12-18T10:36:01.369Z,12.40
2022-12-18T10:38:30.289Z,12.43
2022-12-18T10:41:26.652Z,14.65
2022-12-18T10:44:17.782Z,14.70
2022-12-18T10:46:47.062Z,11.27
2022-12-18T10:49:28.113Z,12.07
2022-12-18T10:52:21.805Z,11.07
2022-12-18T10:54:55.832Z,10.27
2022-12-18T10:57:32.678Z,10.82
2022-12-18T11:00:01.261Z,13.13
2022-12-18T11:02:39.665Z,13.15
2022-12-18T11:05:29.130Z,10.50
2022-12-18T11:07:57.152Z,13.77
2022-12-18T11:10:36.571Z,12.70
2022-12-18T11:13:22.895Z,12.82
2022-12-18T11:15:50.000Z,12.70
2022-12-18T11:18:25.891Z,13.33
2022-12-18T11:21:08.275Z,12.32
2022-12-18T11:23:35.903Z,11.55
2022-12-18T11:26:05.051Z,15.73
2022-12-18T11:28:42.250Z,15.95
2022-12-18T11:31:12.512Z,13.83
2022-12-18T11:33:58.451Z,15.07
2022-12-18T11:36:36.158Z,11.50
2022-12-18T11:39:17.600Z,13.50
2022-12-18T11:42:13.493Z,14.25
2022-12-18T11:44:49.146Z,10.57
2022-12-18T11:47:49.935Z,13.75
2022-12-18T11:50:27.032Z,11.13
2022-12-18T11:52:57.486Z,10.10
2022-12-18T11:55:37.957Z,12.50
2022-12-18T11:58:39.441Z,12.47
2022-12-18T12:01:22.888Z,13.60
2022-12-18T12:04:01.527Z,14.90
2022-12-18T12:07:02.789Z,12.60
2022-12-18T12:09:58.423Z,13.35
2022-12-18T12:12:48.643Z,15.80
2022-12-18T12:15:33.865Z,12.73
2022-12-18T12:18:00.160Z,12.57
2022-12-18T12:20:50.478Z,13.38
2022-12-18T12:23:30.408Z,12.52
2022-12-18T12:26:03.770Z,12.23
2022-12-18T12:28:36.048Z,13.55
2022-12-18T12:31:49.820Z,10.95
2022-12-18T12:34:20.308Z,16.25
2022-12-18T12:37:13.836Z,12.35
2022-12-18T12:39:43.544Z,14.83
2022-12-18T12:42:48.749Z,15.25
2022-12-18T12:45:23.769Z,15.40
2022-12-18T12:47:53.002Z,12.82
2022-12-18T12:50:21.845Z,14.13
2022-12-18T12:52:55.947Z,11.97
2022-12-18T12:55:25.973Z,11.82
2022-12-18T12:58:02.921Z,14.30
2022-12-18T13:00:36.972Z,13.55
2022-12-18T13:03:27.713Z,11.50
2022-12-18T13:06:01.759Z,13.87
2022-12-18T13:12:00.305Z,13.85
2022-12-18T13:14:34.739Z,12.27
2022-12-18T13:17:22.734Z,13.48
2022-12-18T13:20:10.512Z,14.63
2022-12-18T13:22:46.871Z,13.95
2022-12-18T13:25:31.661Z,12.98
2022-12-18T13:28:09.453Z,13.82
2022-12-18T13:30:36.110Z,13.35
2022-12-18T13:33:15.247Z,10.87
2022-12-18T13:35:49.721Z,14.90
2022-12-18T13:38:25.205Z,15.02
2022-12-18T13:40:56.534Z,14.05
2022-12-18T13:43:22.846Z,15.73
2022-12-18T13:46:00.575Z,15.07
2022-12-18T13:48:28.903Z,15.88
2022-12-18T13:51:05.962Z,15.65
2022-12-18T13:53:45.585Z,13.75
2022-12-18T13:56:17.537Z,14.88
2022-12-18T13:58:44.221Z,15.57
2022-12-18T14:01:24.566Z,15.85
2022-12-18T14:04:10.284Z,16.23
2022-12-18T14:06:37.154Z,14.63
2022-12-18T14:09:04.015Z,16.73
2022-12-18T14:11:31.466Z,18.30
2022-12-18T14:13:58.446Z,16.08
2022-12-18T14:16:24.913Z,14.38
2022-12-18T14:19:05.004Z,14.80
2022-12-18T14:21:41.418Z,15.25
2022-12-18T14:24:22.400Z,14.43
2022-12-18T14:26:50.897Z,16.35
2022-12-18T14:29:29.056Z,15.07
2022-12-18T14:32:17.933Z,14.55
2022-12-18T14:34:54.566Z,15.48
2022-12-18T14:37:23.657Z,15.07
2022-12-18T14:39:59.030Z,16.65
2022-12-18T14:42:29.565Z,16.35
2022-12-18T14:45:39.121Z,16.17
2022-12-18T14:48:22.916Z,17.98
2022-12-18T14:51:03.783Z,17.60
2022-12-18T14:53:42.253Z,14.68
2022-12-18T14:56:17.709Z,15.88
2022-12-18T14:58:52.658Z,19.98
2022-12-18T15:01:32.769Z,16.92
2022-12-18T15:04:00.980Z,16.30
2022-12-18T15:06:29.576Z,16.88
2022-12-18T15:08:56.120Z,14.93
2022-12-18T15:11:46.906Z,16.75
2022-12-18T15:14:33.006Z,15.93
2022-12-18T15:17:01.406Z,17.43
2022-12-18T15:19:41.284Z,15.23
2022-12-18T15:22:18.591Z,12.85
2022-12-18T15:24:45.032Z,15.43
2022-12-18T15:27:34.269Z,15.52
2022-12-18T15:30:22.333Z,15.60
2022-12-18T15:32:49.957Z,17.92
2022-12-18T15:35:18.545Z,17.45
2022-12-18T15:37:45.563Z,17.00
2022-12-18T15:40:20.468Z,15.38
2022-12-18T15:43:06.904Z,16.10
2022-12-18T15:45:33.528Z,16.52
2022-12-18T15:48:00.513Z,19.52
2022-12-18T15:50:27.112Z,16.90
2022-12-18T15:52:56.323Z,18.15
2022-12-18T15:55:43.740Z,17.37
2022-12-18T15:58:11.271Z,17.38
2022-12-18T16:00:40.940Z,17.30
2022-12-18T16:03:07.870Z,17.40
2022-12-18T16:05:34.463Z,14.20
2022-12-18T16:08:00.816Z,16.17
2022-12-18T16:10:27.363Z,16.58
2022-12-18T16:12:53.835Z,16.13
2022-12-18T16:15:24.586Z,16.77
2022-12-18T16:17:51.288Z,14.40
2022-12-18T16:20:21.526Z,14.60
2022-12-18T16:22:49.097Z,14.57
2022-12-18T16:25:24.253Z,16.52
2022-12-18T16:27:51.579Z,16.33
2022-12-18T16:30:21.407Z,15.55
2022-12-18T16:32:48.020Z,14.13
2022-12-18T16:35:16.090Z,15.10
2022-12-18T16:37:43.184Z,15.93
2022-12-18T16:40:12.500Z,14.23
2022-12-18T16:42:40.181Z,14.23
2022-12-18T16:45:08.403Z,14.83
2022-12-18T16:47:35.476Z,13.93
2022-12-18T16:50:01.908Z,12.70
2022-12-18T16:52:28.449Z,13.98
2022-12-18T16:54:54.834Z,14.23
2022-12-18T16:57:22.686Z,15.13
2022-12-18T16:59:52.881Z,11.35
2022-12-18T17:02:23.526Z,13.93
2022-12-18T17:04:53.848Z,14.90
2022-12-18T17:07:20.229Z,10.93
2022-12-18T17:09:46.642Z,16.80
2022-12-18T17:12:13.215Z,12.90
2022-12-18T17:14:39.681Z,13.57
2022-12-18T17:17:20.952Z,11.18
2022-12-18T17:19:47.972Z,14.18
2022-12-18T17:22:14.336Z,13.00
2022-12-18T17:24:40.666Z,11.68
2022-12-18T17:27:08.738Z,12.77
2022-12-18T17:29:35.183Z,14.10
2022-12-18T17:32:01.523Z,11.95
2022-12-18T17:34:28.262Z,15.20
2022-12-18T17:36:55.326Z,13.55
2022-12-18T17:39:22.508Z,14.40
2022-12-18T17:41:49.435Z,10.80
2022-12-18T17:44:17.003Z,13.48
2022-12-18T17:46:43.760Z,13.00
2022-12-18T17:49:10.600Z,14.50
2022-12-18T17:51:37.236Z,13.77
2022-12-18T17:54:05.276Z,14.60
2022-12-18T17:56:31.707Z,14.18
2022-12-18T17:58:58.776Z,13.17
2022-12-18T18:01:26.207Z,10.98
2022-12-18T18:03:54.211Z,12.57
2022-12-18T18:06:20.856Z,11.73
2022-12-18T18:08:47.953Z,12.25
2022-12-18T18:11:36.506Z,11.20
2022-12-18T18:14:05.473Z,12.55
2022-12-18T18:16:40.381Z,14.25
2022-12-18T18:19:09.600Z,12.85
2022-12-18T18:21:40.761Z,12.15
2022-12-18T18:24:08.783Z,9.10
2022-12-18T18:26:37.179Z,12.68
2022-12-18T18:29:06.287Z,8.77
2022-12-18T18:31:41.106Z,13.23
2022-12-18T18:34:08.551Z,12.25
2022-12-18T18:36:34.912Z,11.70
2022-12-18T18:39:02.179Z,12.88
2022-12-18T18:41:29.926Z,11.30
2022-12-18T18:43:57.532Z,13.70
2022-12-18T18:46:24.344Z,12.77
2022-12-18T18:48:50.779Z,13.97
2022-12-18T18:51:20.879Z,13.10
2022-12-18T18:53:50.161Z,13.48
2022-12-18T18:56:45.340Z,13.07
2022-12-18T18:59:05.697Z,13.38
2022-12-18T19:01:32.381Z,11.40
2022-12-18T19:03:58.895Z,12.68
2022-12-18T19:06:28.471Z,13.63
2022-12-18T19:08:56.663Z,11.10
2022-12-18T19:11:48.003Z,13.95
2022-12-18T19:14:15.787Z,13.10
2022-12-18T19:16:43.740Z,12.23
2022-12-18T19:19:10.302Z,11.55
2022-12-18T19:21:38.116Z,12.70
2022-12-18T19:24:05.572Z,14.52
2022-12-18T19:26:32.135Z,11.70
2022-12-18T19:29:06.588Z,13.25
2022-12-18T19:31:36.145Z,13.65
2022-12-18T19:34:05.147Z,12.32
2022-12-18T19:36:32.779Z,12.85
2022-12-18T19:39:00.906Z,14.13
2022-12-18T19:41:30.641Z,14.15
2022-12-18T19:43:59.330Z,11.45
2022-12-18T19:46:25.779Z,14.48
2022-12-18T19:48:52.403Z,12.98
2022-12-18T19:51:22.563Z,14.43
2022-12-18T19:53:53.563Z,15.63
2022-12-18T19:56:25.739Z,13.43
2022-12-18T19:58:53.514Z,14.80
2022-12-18T20:01:21.696Z,15.85
2022-12-18T20:03:52.601Z,15.03
2022-12-18T20:06:28.837Z,15.25
2022-12-18T20:09:00.347Z,13.43
2022-12-18T20:11:27.500Z,13.02
2022-12-18T20:13:53.934Z,14.30
2022-12-18T20:16:20.501Z,13.57
2022-12-18T20:18:46.985Z,14.15
2022-12-18T20:21:14.283Z,14.98
2022-12-18T20:23:41.115Z,17.13
2022-12-18T20:26:08.572Z,15.93
2022-12-18T20:28:35.414Z,15.37
2022-12-18T20:31:03.880Z,16.95
2022-12-18T20:33:31.074Z,15.70
2022-12-18T20:36:02.761Z,15.90
2022-12-18T20:38:30.366Z,15.57
2022-12-18T20:40:59.329Z,16.87
2022-12-18T20:43:26.019Z,15.57
2022-12-18T20:46:00.474Z,17.55
2022-12-18T20:48:28.028Z,17.13
2022-12-18T20:51:03.922Z,15.95
2022-12-18T20:53:30.637Z,15.80
2022-12-18T20:55:57.030Z,16.40
2022-12-18T20:58:23.814Z,18.77
2022-12-18T21:00:51.498Z,17.63
2022-12-18T21:03:18.763Z,17.92
2022-12-18T21:05:45.209Z,18.83
2022-12-18T21:08:11.707Z,18.90
2022-12-18T21:10:42.339Z,19.65
2022-12-18T21:13:09.519Z,22.58
2022-12-18T21:15:37.743Z,20.70
2022-12-18T21:18:04.336Z,19.77
2022-12-18T21:20:31.207Z,19.15
2022-12-18T21:23:04.673Z,19.60
2022-12-18T21:25:41.378Z,20.73
2022-12-18T21:28:07.730Z,23.33
2022-12-18T21:30:34.112Z,22.83
2022-12-18T21:33:00.495Z,23.65
2022-12-18T21:35:27.414Z,21.70
2022-12-18T21:37:57.357Z,23.08
2022-12-18T21:40:24.042Z,23.42
2022-12-18T21:43:09.153Z,22.43
2022-12-18T21:45:36.917Z,22.67
2022-12-18T21:48:03.351Z,22.75
2022-12-18T21:50:32.834Z,23.63
2022-12-18T21:52:59.204Z,25.75
2022-12-18T21:55:25.843Z,25.23
2022-12-18T21:57:53.745Z,22.25
2022-12-18T22:00:20.178Z,22.90
2022-12-18T22:02:47.797Z,24.05
2022-12-18T22:05:14.482Z,21.77
2022-12-18T22:07:40.905Z,24.63
2022-12-18T22:10:07.790Z,24.00
2022-12-18T22:12:38.536Z,28.35
2022-12-18T22:15:11.392Z,23.77
2022-12-18T22:17:39.511Z,26.45
2022-12-18T22:20:06.455Z,23.60
2022-12-18T22:22:32.790Z,26.70
2022-12-18T22:24:59.143Z,26.15
2022-12-18T22:27:25.477Z,25.33
2022-12-18T22:30:03.915Z,27.90
2022-12-18T22:32:32.384Z,24.33
2022-12-18T22:35:05.316Z,25.92
2022-12-18T22:37:33.771Z,24.77
2022-12-18T22:40:03.124Z,27.30
2022-12-18T22:42:31.399Z,25.50
2022-12-18T22:44:57.764Z,24.53
2022-12-18T22:47:29.244Z,28.85
2022-12-18T22:49:56.348Z,28.90
2022-12-18T22:52:23.851Z,27.10
2022-12-18T22:54:53.217Z,30.33
2022-12-18T22:57:20.293Z,32.33
2022-12-18T22:59:46.697Z,32.78
2022-12-18T23:02:13.134Z,29.30
2022-12-18T23:04:39.742Z,33.67
2022-12-18T23:07:06.642Z,35.47
2022-12-18T23:09:33.571Z,35.17
2022-12-18T23:11:59.954Z,33.88
2022-12-18T23:14:26.497Z,35.20
2022-12-18T23:16:53.157Z,36.28
2022-12-18T23:19:19.897Z,38.75
2022-12-18T23:21:46.299Z,39.27
2022-12-18T23:24:12.661Z,36.25
2022-12-18T23:26:39.086Z,36.83
2022-12-18T23:29:05.666Z,39.65
2022-12-18T23:31:34.794Z,32.83
2022-12-18T23:34:02.297Z,38.10
2022-12-18T23:36:28.871Z,37.50
2022-12-18T23:39:00.429Z,35.55
2022-12-18T23:41:30.115Z,39.92
2022-12-18T23:43:57.581Z,41.67
2022-12-18T23:46:29.647Z,39.30
2022-12-18T23:48:58.480Z,40.80
2022-12-18T23:51:25.711Z,42.03
2022-12-18T23:53:53.785Z,46.75
2022-12-18T23:56:20.550Z,39.20
2022-12-18T23:58:48.920Z,37.40
